Time;durP1;ratioP1;P1;durP2;ratioP2;P2;SDS_P1;SDS_P2;PMS_P1;PMS_P2;Temp;Humidity;BMP_temperature;BMP_pressure;BME280_temperature;BME280_humidity;BME280_pressure;Samples;Min_cycle;Max_cycle;Signal;HPM_P1;HPM_P2
2023/01/02 00:00:39;;;;;;;27.13;25.10;;;;;;;;;;10083916;28;20509;-68
2023/01/02 00:05:36;;;;;;;30.83;28.80;;;;;;;;;;10083091;28;20047;-69
2023/01/02 00:10:32;;;;;;;32.13;29.25;;;;;;;;;;10080367;28;20417;-69
2023/01/02 00:15:28;;;;;;;32.53;30.33;;;;;;;;;;10085339;28;20496;-69
2023/01/02 00:20:24;;;;;;;34.50;32.13;;;;;;;;;;10085782;28;20069;-69
2023/01/02 00:25:21;;;;;;;33.78;31.50;;;;;;;;;;10085923;28;20051;-68
2023/01/02 00:30:17;;;;;;;37.60;35.30;;;;;;;;;;10076601;28;20085;-69
2023/01/02 00:35:13;;;;;;;42.85;40.15;;;;;;;;;;10102630;28;20070;-69
2023/01/02 00:40:12;;;;;;;44.00;41.15;;;;;;;;;;10075796;28;20043;-69
2023/01/02 00:45:09;;;;;;;46.92;43.85;;;;;;;;;;10082627;28;20065;-68
2023/01/02 00:50:06;;;;;;;51.58;48.30;;;;;;;;;;10084895;28;20074;-69
2023/01/02 00:55:02;;;;;;;54.83;51.22;;;;;;;;;;10085984;28;20082;-69
2023/01/02 00:59:58;;;;;;;54.63;50.92;;;;;;;;;;10114133;28;20047;-69
2023/01/02 01:04:54;;;;;;;55.47;52.08;;;;;;;;;;10109679;28;20547;-69
2023/01/02 01:09:51;;;;;;;55.85;52.22;;;;;;;;;;10113464;28;20493;-69
2023/01/02 01:14:47;;;;;;;59.08;55.47;;;;;;;;;;10085962;28;20155;-69
2023/01/02 01:19:43;;;;;;;60.70;57.03;;;;;;;;;;10094080;28;20441;-68
2023/01/02 01:24:39;;;;;;;60.03;56.63;;;;;;;;;;10084943;28;20048;-69
2023/01/02 01:29:35;;;;;;;65.00;61.13;;;;;;;;;;10079115;28;20098;-69
2023/01/02 01:34:32;;;;;;;63.65;59.90;;;;;;;;;;10103371;28;20066;-69
2023/01/02 01:39:28;;;;;;;66.60;62.28;;;;;;;;;;10087609;28;20045;-68
2023/01/02 01:44:40;;;;;;;65.57;61.47;;;;;;;;;;10103956;28;20043;-69
2023/01/02 01:49:36;;;;;;;64.75;60.78;;;;;;;;;;10099128;28;20390;-68
2023/01/02 01:54:35;;;;;;;65.63;61.70;;;;;;;;;;10088081;28;20750;-68
2023/01/02 01:59:32;;;;;;;65.43;61.33;;;;;;;;;;10100655;28;20042;-68
2023/01/02 02:09:43;;;;;;;61.33;57.50;;;;;;;;;;10408590;23;20138;-67
2023/01/02 02:14:39;;;;;;;62.17;58.33;;;;;;;;;;10062287;28;20047;-67
2023/01/02 02:19:35;;;;;;;59.65;56.10;;;;;;;;;;10042774;28;20484;-66
2023/01/02 02:24:50;;;;;;;63.28;59.10;;;;;;;;;;10033783;28;20710;-67
2023/01/02 02:29:49;;;;;;;60.40;56.65;;;;;;;;;;10043674;28;20438;-67
2023/01/02 02:34:57;;;;;;;62.33;58.20;;;;;;;;;;10020331;28;20040;-67
2023/01/02 02:40:10;;;;;;;59.17;55.08;;;;;;;;;;10013686;28;20081;-68
2023/01/02 02:45:07;;;;;;;;;;;;;;;;;;10010601;29;20119;-68
2023/01/02 02:50:06;;;;;;;64.20;60.30;;;;;;;;;;10033600;28;19954;-68
2023/01/02 02:55:14;;;;;;;62.42;58.33;;;;;;;;;;10025082;28;20428;-68
2023/01/02 03:00:15;;;;;;;65.25;61.03;;;;;;;;;;10031917;28;20066;-68
2023/01/02 03:05:13;;;;;;;66.90;62.38;;;;;;;;;;10003998;28;20055;-66
2023/01/02 03:10:36;;;;;;;67.28;63.17;;;;;;;;;;10037445;28;20565;-68
2023/01/02 03:15:39;;;;;;;72.68;67.90;;;;;;;;;;10013882;28;20116;-67
2023/01/02 03:20:40;;;;;;;70.97;66.30;;;;;;;;;;10012840;29;20414;-68
2023/01/02 03:25:37;;;;;;;66.83;62.73;;;;;;;;;;10013826;29;20123;-67
2023/01/02 03:30:36;;;;;;;65.53;61.58;;;;;;;;;;10043176;28;20467;-68
2023/01/02 03:35:37;;;;;;;66.50;62.03;;;;;;;;;;10022795;28;20058;-68
2023/01/02 03:40:36;;;;;;;68.72;64.15;;;;;;;;;;10021595;29;20047;-68
2023/01/02 03:45:35;;;;;;;68.55;63.92;;;;;;;;;;10009719;28;20533;-68
2023/01/02 03:50:32;;;;;;;66.57;61.95;;;;;;;;;;10027666;28;20048;-68
2023/01/02 03:55:32;;;;;;;63.15;58.92;;;;;;;;;;10027733;28;20056;-68
2023/01/02 04:00:54;;;;;;;64.05;59.85;;;;;;;;;;10023421;28;20107;-68
2023/01/02 04:05:55;;;;;;;61.25;57.45;;;;;;;;;;9995828;29;20078;-68
2023/01/02 04:10:53;;;;;;;69.05;64.55;;;;;;;;;;10029055;28;20043;-68
2023/01/02 04:15:54;;;;;;;64.47;60.03;;;;;;;;;;10015134;28;20056;-68
2023/01/02 04:20:52;;;;;;;64.18;59.70;;;;;;;;;;10013615;28;20154;-69
2023/01/02 04:25:56;;;;;;;63.75;59.78;;;;;;;;;;10006450;29;20414;-69
2023/01/02 04:31:12;;;;;;;60.75;56.72;;;;;;;;;;10008065;28;20063;-67
2023/01/02 04:36:10;;;;;;;61.28;57.22;;;;;;;;;;10011824;28;20541;-69
2023/01/02 04:41:07;;;;;;;55.75;52.22;;;;;;;;;;10013610;29;20083;-68
2023/01/02 04:46:03;;;;;;;52.35;48.53;;;;;;;;;;10026137;28;20553;-68
2023/01/02 04:50:59;;;;;;;50.45;46.70;;;;;;;;;;10018803;28;20102;-68
2023/01/02 04:55:56;;;;;;;47.40;44.33;;;;;;;;;;10013947;28;20044;-67
2023/01/02 05:00:53;;;;;;;50.33;46.92;;;;;;;;;;10016995;28;20048;-67
2023/01/02 05:05:49;;;;;;;51.55;47.92;;;;;;;;;;10038147;28;20505;-67
2023/01/02 05:10:45;;;;;;;48.50;45.15;;;;;;;;;;10020741;28;20138;-67
2023/01/02 05:15:41;;;;;;;49.85;46.58;;;;;;;;;;10020063;28;20043;-67
2023/01/02 05:20:38;;;;;;;53.65;49.53;;;;;;;;;;10017971;28;20051;-67
2023/01/02 05:25:34;;;;;;;52.90;48.60;;;;;;;;;;10021061;29;20055;-68
2023/01/02 05:30:31;;;;;;;59.53;55.42;;;;;;;;;;10005731;29;20082;-68
2023/01/02 05:35:27;;;;;;;58.70;53.83;;;;;;;;;;10027589;28;21911;-68
2023/01/02 05:40:28;;;;;;;60.58;56.25;;;;;;;;;;10002522;28;20059;-68
2023/01/02 05:45:25;;;;;;;62.85;58.22;;;;;;;;;;10010857;29;20422;-68
2023/01/02 05:50:22;;;;;;;60.88;56.35;;;;;;;;;;10029109;28;20052;-68
2023/01/02 05:55:18;;;;;;;59.80;55.28;;;;;;;;;;10018497;29;20043;-68
2023/01/02 06:00:14;;;;;;;58.83;54.35;;;;;;;;;;10021829;28;20043;-68
2023/01/02 06:05:11;;;;;;;58.85;54.40;;;;;;;;;;10029245;28;20063;-68
2023/01/02 06:10:07;;;;;;;66.22;61.25;;;;;;;;;;10005816;28;20048;-68
2023/01/02 06:15:04;;;;;;;64.65;59.97;;;;;;;;;;10011076;29;20044;-68
2023/01/02 06:20:00;;;;;;;62.33;57.83;;;;;;;;;;10022389;29;20490;-68
2023/01/02 06:24:56;;;;;;;62.40;57.67;;;;;;;;;;10020794;29;20139;-67
2023/01/02 06:29:52;;;;;;;62.30;57.45;;;;;;;;;;10009822;28;20078;-67
2023/01/02 06:34:48;;;;;;;58.85;54.20;;;;;;;;;;10021608;28;20155;-67
2023/01/02 06:39:45;;;;;;;55.97;51.67;;;;;;;;;;10012486;28;20075;-67
2023/01/02 06:44:41;;;;;;;53.53;48.95;;;;;;;;;;10018474;28;20521;-67
2023/01/02 06:49:37;;;;;;;53.30;48.67;;;;;;;;;;10010418;28;20062;-67
2023/01/02 06:54:34;;;;;;;55.80;51.42;;;;;;;;;;10014644;28;20134;-66
2023/01/02 06:59:30;;;;;;;54.38;50.17;;;;;;;;;;10019284;28;20050;-68
2023/01/02 07:04:26;;;;;;;55.30;50.90;;;;;;;;;;10031096;28;20696;-68
2023/01/02 07:09:22;;;;;;;56.70;52.15;;;;;;;;;;10017096;29;20051;-67
2023/01/02 07:14:19;;;;;;;61.60;56.83;;;;;;;;;;10018971;28;20083;-67
2023/01/02 07:19:15;;;;;;;60.40;55.42;;;;;;;;;;10010574;28;20052;-67
2023/01/02 07:24:12;;;;;;;63.13;58.17;;;;;;;;;;10012511;28;20123;-67
2023/01/02 07:29:08;;;;;;;63.30;58.20;;;;;;;;;;10015876;28;20040;-67
2023/01/02 07:34:05;;;;;;;62.05;57.13;;;;;;;;;;10011649;29;20467;-67
2023/01/02 07:39:01;;;;;;;63.85;58.95;;;;;;;;;;10009832;28;20046;-67
2023/01/02 07:43:57;;;;;;;65.32;60.30;;;;;;;;;;10010116;29;20075;-67
2023/01/02 07:48:53;;;;;;;63.90;58.67;;;;;;;;;;10025213;29;20051;-67
2023/01/02 07:53:50;;;;;;;67.32;62.20;;;;;;;;;;10014799;29;20075;-67
2023/01/02 07:58:46;;;;;;;69.68;64.00;;;;;;;;;;10014419;29;20082;-67
2023/01/02 08:03:42;;;;;;;67.70;62.63;;;;;;;;;;10019714;28;20091;-68
2023/01/02 08:08:39;;;;;;;65.22;60.30;;;;;;;;;;10016292;28;20458;-68
2023/01/02 08:13:35;;;;;;;69.20;63.80;;;;;;;;;;10013322;28;20059;-67
2023/01/02 08:18:32;;;;;;;66.32;61.55;;;;;;;;;;10020028;29;20039;-67
2023/01/02 08:23:28;;;;;;;62.60;58.10;;;;;;;;;;10017318;28;20649;-67
2023/01/02 08:28:25;;;;;;;57.25;53.17;;;;;;;;;;10021003;28;20509;-68
2023/01/02 08:33:21;;;;;;;57.17;52.65;;;;;;;;;;10008244;28;20066;-67
2023/01/02 08:38:18;;;;;;;58.67;54.20;;;;;;;;;;10009713;28;20123;-68
2023/01/02 08:43:14;;;;;;;54.50;50.40;;;;;;;;;;10014696;29;20149;-68
2023/01/02 08:48:11;;;;;;;54.30;50.53;;;;;;;;;;10013969;29;20044;-68
2023/01/02 08:53:17;;;;;;;50.17;46.60;;;;;;;;;;10017860;28;20048;-68
2023/01/02 08:58:13;;;;;;;52.22;48.78;;;;;;;;;;10021840;29;20127;-68
2023/01/02 09:03:09;;;;;;;52.22;48.47;;;;;;;;;;10016061;28;20114;-68
2023/01/02 09:08:05;;;;;;;53.22;49.42;;;;;;;;;;10016055;29;20055;-68
2023/01/02 09:13:02;;;;;;;51.83;48.17;;;;;;;;;;10009858;29;20051;-68
2023/01/02 09:17:58;;;;;;;52.15;48.50;;;;;;;;;;10012467;29;20044;-68
2023/01/02 09:22:54;;;;;;;49.78;46.53;;;;;;;;;;10029112;28;20079;-68
2023/01/02 09:27:51;;;;;;;49.22;45.85;;;;;;;;;;10001126;29;20052;-69
2023/01/02 09:32:49;;;;;;;49.60;45.90;;;;;;;;;;10007983;29;20080;-68
2023/01/02 09:37:45;;;;;;;47.13;43.75;;;;;;;;;;10013289;29;20043;-68
2023/01/02 09:42:43;;;;;;;44.83;41.58;;;;;;;;;;10018873;28;20103;-68
2023/01/02 09:47:41;;;;;;;44.10;40.90;;;;;;;;;;10012296;28;20126;-68
2023/01/02 09:52:40;;;;;;;43.33;40.30;;;;;;;;;;10012725;29;20055;-68
2023/01/02 09:57:43;;;;;;;42.22;39.42;;;;;;;;;;10018065;29;20086;-69
2023/01/02 10:02:58;;;;;;;42.72;39.63;;;;;;;;;;10014832;28;20166;-68
2023/01/02 10:08:02;;;;;;;35.27;32.60;;;;;;;;;;10013807;29;20046;-68
2023/01/02 10:12:58;;;;;;;36.97;34.53;;;;;;;;;;10011916;29;20093;-68
2023/01/02 10:17:59;;;;;;;37.00;34.20;;;;;;;;;;10015953;28;20515;-68
2023/01/02 10:22:58;;;;;;;35.45;33.25;;;;;;;;;;10022356;28;20529;-68
2023/01/02 10:27:58;;;;;;;34.92;32.05;;;;;;;;;;10013801;28;20044;-68
2023/01/02 10:32:55;;;;;;;34.80;32.65;;;;;;;;;;10022014;28;20062;-68
2023/01/02 10:37:52;;;;;;;31.88;29.60;;;;;;;;;;10025123;28;20043;-68
2023/01/02 10:42:50;;;;;;;30.23;28.20;;;;;;;;;;10020905;28;20509;-67
2023/01/02 10:47:54;;;;;;;30.40;28.02;;;;;;;;;;10013342;29;20040;-68
2023/01/02 10:53:11;;;;;;;31.23;28.83;;;;;;;;;;10020421;29;20089;-67
2023/01/02 10:58:24;;;;;;;37.13;34.50;;;;;;;;;;10014854;28;20080;-68
2023/01/02 11:03:21;;;;;;;;;;;;;;;;;;10015290;28;20079;-67
2023/01/02 11:08:19;;;;;;;42.05;39.35;;;;;;;;;;10009413;28;20026;-68
2023/01/02 11:13:17;;;;;;;41.78;39.08;;;;;;;;;;10025270;28;20049;-68
2023/01/02 11:18:30;;;;;;;43.70;41.00;;;;;;;;;;10009365;29;20040;-68
2023/01/02 11:23:26;;;;;;;;;;;;;;;;;;10004709;28;20083;-68
2023/01/02 11:28:24;;;;;;;44.70;42.00;;;;;;;;;;10021875;28;19923;-68
2023/01/02 11:33:23;;;;;;;46.08;43.08;;;;;;;;;;10021299;28;20082;-67
2023/01/02 11:38:21;;;;;;;49.90;46.60;;;;;;;;;;10018097;28;20063;-66
2023/01/02 11:43:47;;;;;;;51.83;48.70;;;;;;;;;;10019064;28;20110;-66
2023/01/02 11:48:43;;;;;;;38.08;35.95;;;;;;;;;;10020586;29;20059;-67
2023/01/02 11:53:40;;;;;;;42.90;40.58;;;;;;;;;;10018105;28;20566;-66
2023/01/02 11:58:55;;;;;;;41.42;39.13;;;;;;;;;;10013569;28;20505;-66
2023/01/02 12:03:52;;;;;;;45.42;42.92;;;;;;;;;;10018520;28;20055;-67
2023/01/02 12:08:49;;;;;;;48.50;45.75;;;;;;;;;;10012751;29;20048;-67
2023/01/02 12:13:56;;;;;;;45.97;43.47;;;;;;;;;;10020030;28;20052;-67
2023/01/02 12:18:58;;;;;;;48.15;45.50;;;;;;;;;;10007517;28;20071;-67
2023/01/02 12:24:26;;;;;;;41.03;38.63;;;;;;;;;;10013500;29;20413;-67
2023/01/02 12:29:30;;;;;;;38.88;36.67;;;;;;;;;;10012521;29;20515;-66
2023/01/02 12:35:00;;;;;;;39.03;36.83;;;;;;;;;;10007134;28;20453;-67
2023/01/02 12:40:15;;;;;;;38.63;36.45;;;;;;;;;;10018041;29;20134;-67
2023/01/02 12:45:30;;;;;;;32.47;30.67;;;;;;;;;;10014407;28;20122;-67
2023/01/02 12:50:32;;;;;;;31.42;29.67;;;;;;;;;;10017311;28;20048;-67
2023/01/02 12:55:28;;;;;;;33.05;31.25;;;;;;;;;;10018726;28;20054;-67
2023/01/02 13:00:28;;;;;;;33.78;31.90;;;;;;;;;;10013985;28;20071;-67
2023/01/02 13:05:27;;;;;;;31.15;29.35;;;;;;;;;;10012774;28;20065;-66
2023/01/02 13:10:25;;;;;;;34.53;32.45;;;;;;;;;;10018294;28;20086;-67
2023/01/02 13:15:24;;;;;;;34.95;32.85;;;;;;;;;;10012279;28;20155;-67
2023/01/02 13:20:32;;;;;;;30.17;28.58;;;;;;;;;;10012769;28;20143;-67
2023/01/02 13:25:29;;;;;;;31.52;29.33;;;;;;;;;;10000844;29;20056;-67
2023/01/02 13:30:31;;;;;;;33.20;31.20;;;;;;;;;;10006903;28;20419;-67
2023/01/02 13:35:33;;;;;;;31.50;29.58;;;;;;;;;;10009337;28;20184;-67
2023/01/02 13:40:32;;;;;;;31.27;29.47;;;;;;;;;;10016054;28;20082;-67
2023/01/02 13:45:48;;;;;;;32.80;30.80;;;;;;;;;;10010140;29;20059;-67
2023/01/02 13:50:56;;;;;;;29.63;27.92;;;;;;;;;;10019362;29;20072;-67
2023/01/02 13:56:01;;;;;;;28.35;26.85;;;;;;;;;;10016231;28;20124;-67
2023/01/02 14:01:17;;;;;;;26.05;24.55;;;;;;;;;;10024869;28;20127;-67
2023/01/02 14:06:27;;;;;;;24.42;23.13;;;;;;;;;;10024663;28;20044;-67
2023/01/02 14:11:27;;;;;;;23.85;22.45;;;;;;;;;;10018669;29;20056;-67
2023/01/02 14:16:35;;;;;;;25.17;23.73;;;;;;;;;;10024441;28;20160;-67
2023/01/02 14:21:33;;;;;;;25.45;23.98;;;;;;;;;;10024756;29;20075;-67
2023/01/02 14:26:32;;;;;;;27.65;26.13;;;;;;;;;;10026994;29;20422;-67
2023/01/02 14:31:32;;;;;;;29.85;28.08;;;;;;;;;;10028025;28;20051;-67
2023/01/02 14:36:42;;;;;;;29.15;27.35;;;;;;;;;;10029703;28;20527;-67
2023/01/02 14:47:09;;;;;;;27.52;25.90;;;;;;;;;;10023406;28;20553;-67
2023/01/02 14:52:10;;;;;;;30.45;28.75;;;;;;;;;;10026972;28;20506;-66
2023/01/02 14:57:23;;;;;;;35.75;33.65;;;;;;;;;;10018336;28;20421;-67
2023/01/02 15:02:21;;;;;;;42.55;40.05;;;;;;;;;;10025455;28;20044;-67
2023/01/02 15:07:18;;;;;;;42.63;39.90;;;;;;;;;;10014832;28;20525;-67
2023/01/02 15:17:40;;;;;;;46.13;43.33;;;;;;;;;;10026687;28;20611;-66
2023/01/02 15:22:36;;;;;;;45.30;42.42;;;;;;;;;;10026158;28;20052;-66
2023/01/02 15:27:33;;;;;;;48.17;45.03;;;;;;;;;;10019537;28;20050;-67
2023/01/02 15:32:33;;;;;;;46.67;43.95;;;;;;;;;;10014820;28;20052;-66
2023/01/02 15:37:29;;;;;;;46.20;43.50;;;;;;;;;;10020161;29;20054;-67
2023/01/02 15:47:49;;;;;;;42.05;39.33;;;;;;;;;;10019391;28;20040;-66
2023/01/02 15:52:46;;;;;;;38.03;35.83;;;;;;;;;;10021875;28;20051;-66
2023/01/02 15:57:52;;;;;;;40.03;37.50;;;;;;;;;;10016647;29;20048;-66
2023/01/02 16:02:49;;;;;;;35.78;33.72;;;;;;;;;;10018979;29;20059;-66
2023/01/02 16:07:49;;;;;;;34.95;32.75;;;;;;;;;;10022126;28;20643;-67
2023/01/02 16:12:53;;;;;;;30.67;28.77;;;;;;;;;;10021445;28;20067;-67
2023/01/02 16:17:50;;;;;;;32.90;30.85;;;;;;;;;;10020708;29;20076;-67
2023/01/02 16:22:58;;;;;;;28.77;26.73;;;;;;;;;;10011678;29;20044;-67
2023/01/02 16:28:05;;;;;;;29.33;27.35;;;;;;;;;;10020113;28;20087;-67
2023/01/02 16:33:33;;;;;;;28.02;26.33;;;;;;;;;;10014023;28;20067;-67
2023/01/02 16:38:30;;;;;;;29.20;27.13;;;;;;;;;;10018899;29;20088;-67
2023/01/02 16:43:29;;;;;;;29.90;27.90;;;;;;;;;;10019446;28;20470;-67
2023/01/02 16:48:27;;;;;;;25.80;24.05;;;;;;;;;;10015859;28;20052;-67
2023/01/02 16:53:26;;;;;;;25.85;24.35;;;;;;;;;;10022648;28;20477;-67
2023/01/02 16:58:24;;;;;;;23.83;22.42;;;;;;;;;;10008181;29;20158;-67
2023/01/02 17:03:21;;;;;;;23.23;21.70;;;;;;;;;;10014086;28;20147;-67
2023/01/02 17:08:17;;;;;;;26.40;24.52;;;;;;;;;;10018345;28;20071;-67
2023/01/02 17:13:14;;;;;;;24.42;22.83;;;;;;;;;;10020534;28;20478;-67
2023/01/02 17:18:11;;;;;;;24.52;22.75;;;;;;;;;;10014768;29;20052;-67
2023/01/02 17:23:07;;;;;;;25.35;23.75;;;;;;;;;;10021782;28;20047;-67
2023/01/02 17:28:04;;;;;;;24.20;22.60;;;;;;;;;;10016734;28;20055;-67
2023/01/02 17:33:00;;;;;;;25.55;23.77;;;;;;;;;;10013533;28;20047;-67
2023/01/02 17:38:00;;;;;;;27.77;25.98;;;;;;;;;;10016016;29;20037;-67
2023/01/02 17:42:56;;;;;;;25.67;24.08;;;;;;;;;;10017130;28;20091;-67
2023/01/02 17:47:52;;;;;;;27.00;25.10;;;;;;;;;;10011551;29;20787;-66
2023/01/02 17:53:09;;;;;;;26.88;25.00;;;;;;;;;;10021095;29;20047;-67
2023/01/02 17:58:05;;;;;;;28.88;27.08;;;;;;;;;;10022274;28;20438;-67
2023/01/02 18:03:01;;;;;;;26.42;24.83;;;;;;;;;;10022470;28;20044;-67
2023/01/02 18:07:57;;;;;;;28.38;26.25;;;;;;;;;;10024770;28;20044;-67
2023/01/02 18:12:54;;;;;;;28.90;26.52;;;;;;;;;;10028154;28;20046;-67
2023/01/02 18:17:51;;;;;;;26.50;24.05;;;;;;;;;;10026801;28;20479;-67
2023/01/02 18:22:48;;;;;;;26.63;24.75;;;;;;;;;;10015393;28;20044;-66
2023/01/02 18:27:46;;;;;;;27.33;25.10;;;;;;;;;;10018150;29;20052;-65
2023/01/02 18:32:43;;;;;;;27.73;25.73;;;;;;;;;;10019431;28;20039;-66
2023/01/02 18:37:39;;;;;;;29.83;27.60;;;;;;;;;;10029399;29;20075;-66
2023/01/02 18:42:36;;;;;;;27.77;25.58;;;;;;;;;;10025527;28;20524;-66
2023/01/02 18:47:35;;;;;;;27.23;25.20;;;;;;;;;;9998804;28;20495;-67
2023/01/02 18:52:32;;;;;;;29.77;27.05;;;;;;;;;;10010106;28;20048;-67
2023/01/02 18:57:30;;;;;;;30.25;27.77;;;;;;;;;;10020291;28;20811;-68
2023/01/02 19:02:29;;;;;;;33.00;30.05;;;;;;;;;;10010557;29;20681;-67
2023/01/02 19:07:28;;;;;;;33.67;30.80;;;;;;;;;;10020922;28;20541;-67
2023/01/02 19:17:40;;;;;;;37.30;34.35;;;;;;;;;;10013451;28;20052;-68
2023/01/02 19:22:37;;;;;;;38.58;35.13;;;;;;;;;;10005508;29;20083;-67
2023/01/02 19:27:35;;;;;;;39.47;36.40;;;;;;;;;;10018060;29;20127;-67
2023/01/02 19:32:33;;;;;;;41.90;38.95;;;;;;;;;;10016291;28;20040;-67
2023/01/02 19:37:34;;;;;;;44.22;40.88;;;;;;;;;;10020666;29;20059;-67
2023/01/02 19:42:31;;;;;;;45.58;42.47;;;;;;;;;;10012835;28;20060;-67
2023/01/02 19:47:28;;;;;;;48.75;45.10;;;;;;;;;;10016882;28;20554;-67
2023/01/02 19:52:26;;;;;;;49.60;45.95;;;;;;;;;;10019288;28;20048;-67
2023/01/02 19:57:23;;;;;;;48.35;44.80;;;;;;;;;;10011966;28;20127;-67
2023/01/02 20:02:20;;;;;;;47.70;44.13;;;;;;;;;;10009353;28;20111;-66
2023/01/02 20:07:16;;;;;;;47.95;44.67;;;;;;;;;;10023281;29;20047;-67
2023/01/02 20:17:27;;;;;;;45.33;42.13;;;;;;;;;;10008863;28;20058;-66
2023/01/02 20:22:25;;;;;;;36.90;33.97;;;;;;;;;;10008531;28;20055;-67
2023/01/02 20:27:21;;;;;;;33.03;30.63;;;;;;;;;;9997038;29;20460;-65
2023/01/02 20:32:17;;;;;;;27.83;25.35;;;;;;;;;;10019934;28;20131;-68
2023/01/02 20:37:14;;;;;;;25.58;23.50;;;;;;;;;;10023025;28;20061;-66
2023/01/02 20:42:10;;;;;;;23.10;20.98;;;;;;;;;;10010244;29;20079;-66
2023/01/02 20:47:09;;;;;;;21.60;20.00;;;;;;;;;;10007605;28;20047;-67
2023/01/02 20:52:05;;;;;;;21.75;19.65;;;;;;;;;;10025861;28;20046;-67
2023/01/02 20:57:02;;;;;;;20.20;18.25;;;;;;;;;;10020366;29;20583;-67
2023/01/02 21:01:58;;;;;;;18.35;16.98;;;;;;;;;;10027491;28;20048;-67
2023/01/02 21:06:55;;;;;;;17.40;16.05;;;;;;;;;;10023362;28;20048;-67
2023/01/02 21:11:51;;;;;;;20.23;18.50;;;;;;;;;;10021936;28;20044;-67
2023/01/02 21:16:48;;;;;;;19.95;18.17;;;;;;;;;;10020860;29;20074;-67
2023/01/02 21:21:44;;;;;;;19.38;17.85;;;;;;;;;;10022256;28;20051;-67
2023/01/02 21:26:40;;;;;;;17.85;16.38;;;;;;;;;;10020648;28;20048;-67
2023/01/02 21:31:37;;;;;;;17.55;15.52;;;;;;;;;;10031767;28;20067;-67
2023/01/02 21:36:35;;;;;;;17.63;16.02;;;;;;;;;;10039522;28;20136;-65
2023/01/02 21:46:46;;;;;;;17.95;16.25;;;;;;;;;;10028796;28;20051;-66
2023/01/02 21:51:43;;;;;;;19.33;17.48;;;;;;;;;;10018105;28;20127;-66
2023/01/02 21:56:39;;;;;;;19.38;17.73;;;;;;;;;;10044908;28;20043;-67
2023/01/02 22:01:35;;;;;;;21.90;19.73;;;;;;;;;;10044135;28;20068;-67
2023/01/02 22:06:34;;;;;;;23.08;21.17;;;;;;;;;;10039325;28;20044;-68
2023/01/02 22:11:54;;;;;;;24.33;22.52;;;;;;;;;;10038402;28;20130;-65
2023/01/02 22:16:51;;;;;;;26.50;24.02;;;;;;;;;;10035465;28;20039;-65
2023/01/02 22:21:47;;;;;;;27.98;25.52;;;;;;;;;;10036773;28;20398;-65
2023/01/02 22:26:44;;;;;;;28.38;25.90;;;;;;;;;;10036857;29;20100;-65
2023/01/02 22:31:41;;;;;;;28.48;26.17;;;;;;;;;;10024417;28;20078;-65
2023/01/02 22:36:37;;;;;;;29.85;26.77;;;;;;;;;;10032624;28;20074;-64
2023/01/02 22:41:37;;;;;;;28.42;26.02;;;;;;;;;;10020745;28;20048;-67
2023/01/02 22:46:36;;;;;;;32.63;30.00;;;;;;;;;;10003831;28;20068;-67
2023/01/02 22:51:32;;;;;;;32.28;29.90;;;;;;;;;;10017920;28;20047;-67
2023/01/02 22:56:51;;;;;;;31.58;28.95;;;;;;;;;;10017504;28;20421;-67
2023/01/02 23:01:48;;;;;;;31.35;29.10;;;;;;;;;;10019102;28;20059;-64
2023/01/02 23:06:45;;;;;;;29.85;27.63;;;;;;;;;;10029199;28;20048;-66
2023/01/02 23:12:02;;;;;;;30.35;28.05;;;;;;;;;;10010672;28;20048;-66
2023/01/02 23:22:13;;;;;;;32.28;29.95;;;;;;;;;;10002415;28;20063;-63
2023/01/02 23:27:10;;;;;;;30.60;28.23;;;;;;;;;;10021842;28;20071;-63
2023/01/02 23:32:07;;;;;;;32.08;29.35;;;;;;;;;;10011544;28;20071;-64
2023/01/02 23:37:04;;;;;;;28.38;25.95;;;;;;;;;;10020745;28;20475;-63
2023/01/02 23:42:01;;;;;;;24.27;22.38;;;;;;;;;;10030060;28;20055;-66
2023/01/02 23:46:57;;;;;;;24.35;21.92;;;;;;;;;;10001515;28;20044;-66
2023/01/02 23:51:54;;;;;;;20.60;18.52;;;;;;;;;;10003150;29;20422;-65
2023/01/02 23:56:50;;;;;;;20.55;18.50;;;;;;;;;;10004365;28;20426;-67
